createdAt,value
2023-01-05T00:01:30.721Z,5.47
2023-01-05T00:03:58.316Z,5.53
2023-01-05T00:06:25.984Z,5.03
2023-01-05T00:08:53.414Z,5.05
2023-01-05T00:11:41.681Z,4.75
2023-01-05T00:14:34.352Z,4.20
2023-01-05T00:17:20.553Z,4.60
2023-01-05T00:20:06.686Z,4.60
2023-01-05T00:22:38.990Z,4.43
2023-01-05T00:25:12.240Z,4.35
2023-01-05T00:27:41.250Z,3.97
2023-01-05T00:30:09.918Z,4.90
2023-01-05T00:32:37.826Z,5.32
2023-01-05T00:35:05.501Z,5.40
2023-01-05T00:37:33.945Z,4.93
2023-01-05T00:40:01.572Z,4.97
2023-01-05T00:42:29.593Z,5.40
2023-01-05T00:44:57.947Z,4.45
2023-01-05T00:47:25.518Z,5.03
2023-01-05T00:49:53.160Z,5.43
2023-01-05T00:52:25.068Z,4.88
2023-01-05T00:54:52.484Z,6.32
2023-01-05T00:57:19.939Z,5.70
2023-01-05T00:59:47.429Z,4.88
2023-01-05T01:02:16.225Z,6.07
2023-01-05T01:04:43.839Z,6.50
2023-01-05T01:07:11.404Z,6.45
2023-01-05T01:09:40.695Z,4.97
2023-01-05T01:12:08.242Z,5.22
2023-01-05T01:14:36.337Z,5.00
2023-01-05T01:17:03.954Z,5.28
2023-01-05T01:19:31.683Z,4.95
2023-01-05T01:21:59.232Z,5.90
2023-01-05T01:24:27.858Z,5.50
2023-01-05T01:26:55.370Z,5.63
2023-01-05T01:29:23.149Z,4.90
2023-01-05T01:31:52.294Z,4.97
2023-01-05T01:34:20.099Z,5.25
2023-01-05T01:36:47.502Z,4.35
2023-01-05T01:39:15.344Z,4.72
2023-01-05T01:41:42.962Z,3.67
2023-01-05T01:44:46.966Z,3.85
2023-01-05T01:47:22.785Z,4.22
2023-01-05T01:49:50.563Z,3.50
2023-01-05T01:52:18.164Z,4.55
2023-01-05T01:54:46.154Z,5.65
2023-01-05T01:57:13.646Z,4.63
2023-01-05T01:59:41.286Z,5.18
2023-01-05T02:02:08.792Z,6.65
2023-01-05T02:04:38.163Z,6.43
2023-01-05T02:07:06.138Z,4.95
2023-01-05T02:09:33.634Z,4.38
2023-01-05T02:12:24.488Z,3.90
2023-01-05T02:15:12.567Z,3.92
2023-01-05T02:18:07.772Z,4.35
2023-01-05T02:20:56.871Z,3.58
2023-01-05T02:23:48.539Z,4.25
2023-01-05T02:26:37.086Z,3.47
2023-01-05T02:29:16.439Z,3.47
2023-01-05T02:31:51.361Z,3.38
2023-01-05T02:34:39.163Z,4.25
2023-01-05T02:37:14.476Z,4.93
2023-01-05T02:40:02.802Z,4.18
2023-01-05T02:42:31.003Z,3.60
2023-01-05T02:45:04.720Z,4.55
2023-01-05T02:47:36.245Z,4.25
2023-01-05T02:50:31.521Z,4.50
2023-01-05T02:53:03.582Z,3.78
2023-01-05T02:55:43.824Z,3.22
2023-01-05T02:58:26.372Z,2.95
2023-01-05T03:01:00.558Z,3.47
2023-01-05T03:03:49.362Z,4.10
2023-01-05T03:06:26.016Z,3.38
2023-01-05T03:08:55.963Z,4.22
2023-01-05T03:11:41.904Z,3.80
2023-01-05T03:14:31.450Z,3.95
2023-01-05T03:16:59.536Z,3.50
2023-01-05T03:19:44.000Z,3.33
2023-01-05T03:22:49.278Z,3.45
2023-01-05T03:25:37.293Z,3.65
2023-01-05T03:28:24.817Z,3.90
2023-01-05T03:31:13.204Z,3.05
2023-01-05T03:34:08.458Z,4.65
2023-01-05T03:36:40.834Z,4.25
2023-01-05T03:39:08.359Z,4.05
2023-01-05T03:41:36.426Z,3.47
2023-01-05T03:44:03.800Z,3.85
2023-01-05T03:46:32.317Z,3.72
2023-01-05T03:48:59.908Z,3.38
2023-01-05T03:51:27.329Z,3.42
2023-01-05T03:53:54.777Z,3.17
2023-01-05T03:56:22.199Z,3.50
2023-01-05T03:58:49.639Z,3.47
2023-01-05T04:01:17.231Z,3.60
2023-01-05T04:03:45.053Z,3.05
2023-01-05T04:06:13.163Z,3.45
2023-01-05T04:08:40.767Z,2.97
2023-01-05T04:11:19.084Z,3.58
2023-01-05T04:13:47.308Z,4.43
2023-01-05T04:16:14.814Z,3.88
2023-01-05T04:18:43.227Z,3.40
2023-01-05T04:21:11.031Z,3.00
2023-01-05T04:23:38.446Z,3.33
2023-01-05T04:26:06.277Z,3.53
2023-01-05T04:28:33.914Z,2.90
2023-01-05T04:31:01.620Z,2.72
2023-01-05T04:33:29.121Z,2.67
2023-01-05T04:35:56.595Z,3.05
2023-01-05T04:38:24.362Z,2.83
2023-01-05T04:40:51.969Z,2.72
2023-01-05T04:43:20.061Z,3.35
2023-01-05T04:45:48.471Z,2.80
2023-01-05T04:48:16.240Z,3.40
2023-01-05T04:50:43.771Z,3.53
2023-01-05T04:53:11.346Z,3.63
2023-01-05T04:55:39.070Z,2.33
2023-01-05T04:58:11.798Z,2.53
2023-01-05T05:00:39.635Z,2.58
2023-01-05T05:03:07.423Z,2.15
2023-01-05T05:05:35.192Z,2.80
2023-01-05T05:08:02.751Z,2.97
2023-01-05T05:10:30.397Z,2.90
2023-01-05T05:12:58.235Z,2.65
2023-01-05T05:15:25.733Z,2.88
2023-01-05T05:17:53.297Z,2.67
2023-01-05T05:20:20.725Z,3.42
2023-01-05T05:22:48.245Z,3.10
2023-01-05T05:25:15.756Z,4.00
2023-01-05T05:27:43.144Z,4.15
2023-01-05T05:30:11.006Z,2.92
2023-01-05T05:32:43.949Z,2.83
2023-01-05T05:35:13.191Z,3.03
2023-01-05T05:37:40.639Z,2.70
2023-01-05T05:40:08.724Z,2.70
2023-01-05T05:42:38.464Z,2.50
2023-01-05T05:45:06.623Z,2.28
2023-01-05T05:47:34.350Z,2.55
2023-01-05T05:50:07.530Z,2.20
2023-01-05T05:52:35.072Z,2.33
2023-01-05T05:55:02.947Z,2.50
2023-01-05T05:57:30.659Z,3.03
2023-01-05T05:59:58.118Z,3.28
2023-01-05T06:02:25.831Z,2.15
2023-01-05T06:04:53.241Z,3.00
2023-01-05T06:07:20.845Z,2.65
2023-01-05T06:09:48.373Z,3.50
2023-01-05T06:12:16.222Z,3.58
2023-01-05T06:14:44.919Z,3.80
2023-01-05T06:17:14.742Z,3.10
2023-01-05T06:19:42.093Z,2.85
2023-01-05T06:22:09.560Z,2.72
2023-01-05T06:24:37.110Z,3.40
2023-01-05T06:27:04.521Z,3.33
2023-01-05T06:29:32.178Z,3.97
2023-01-05T06:31:59.620Z,3.63
2023-01-05T06:34:27.134Z,4.35
2023-01-05T06:37:01.894Z,3.67
2023-01-05T06:39:29.936Z,4.60
2023-01-05T06:41:57.631Z,5.65
2023-01-05T06:44:25.066Z,5.15
2023-01-05T06:46:52.802Z,3.97
2023-01-05T06:49:23.729Z,4.10
2023-01-05T06:51:51.191Z,3.17
2023-01-05T06:54:18.579Z,3.42
2023-01-05T06:56:46.111Z,3.20
2023-01-05T06:59:14.177Z,3.92
2023-01-05T07:01:41.656Z,3.35
2023-01-05T07:04:09.085Z,3.45
2023-01-05T07:06:36.719Z,4.63
2023-01-05T07:09:04.441Z,3.67
2023-01-05T07:11:32.125Z,4.60
2023-01-05T07:14:00.520Z,3.88
2023-01-05T07:16:28.163Z,3.63
2023-01-05T07:18:55.760Z,3.63
2023-01-05T07:21:23.180Z,3.75
2023-01-05T07:23:50.617Z,3.45
2023-01-05T07:26:18.094Z,4.28
2023-01-05T07:28:47.157Z,3.22
2023-01-05T07:31:14.830Z,3.08
2023-01-05T07:33:42.532Z,3.88
2023-01-05T07:36:10.251Z,3.78
2023-01-05T07:38:37.677Z,3.88
2023-01-05T07:41:05.738Z,4.45
2023-01-05T07:43:33.338Z,5.25
2023-01-05T07:46:01.220Z,4.82
2023-01-05T07:48:28.883Z,4.15
2023-01-05T07:51:03.124Z,4.50
2023-01-05T07:53:30.921Z,4.75
2023-01-05T07:55:59.474Z,4.15
2023-01-05T07:58:31.213Z,4.28
2023-01-05T08:01:06.409Z,4.10
2023-01-05T08:03:34.638Z,4.50
2023-01-05T08:06:10.366Z,4.57
2023-01-05T08:08:38.804Z,3.35
2023-01-05T08:11:08.941Z,3.80
2023-01-05T08:13:55.568Z,4.05
2023-01-05T08:16:23.268Z,4.03
2023-01-05T08:18:50.725Z,3.80
2023-01-05T08:21:18.227Z,3.83
2023-01-05T08:23:49.510Z,3.85
2023-01-05T08:28:45.553Z,4.18
2023-01-05T08:31:19.264Z,4.13
2023-01-05T08:33:47.919Z,3.75
2023-01-05T08:36:17.416Z,3.85
2023-01-05T08:38:53.645Z,4.30
2023-01-05T08:41:25.000Z,4.18
2023-01-05T08:46:21.437Z,3.38
2023-01-05T08:48:55.455Z,4.85
2023-01-05T08:51:23.254Z,4.05
2023-01-05T08:53:50.859Z,3.65
2023-01-05T08:56:18.621Z,4.80
2023-01-05T08:58:46.226Z,4.85
2023-01-05T09:01:18.338Z,5.30
2023-01-05T09:03:46.903Z,4.25
2023-01-05T09:06:14.776Z,4.45
2023-01-05T09:08:44.645Z,3.75
2023-01-05T09:11:12.075Z,5.13
2023-01-05T09:13:40.027Z,3.80
2023-01-05T09:16:09.673Z,4.03
2023-01-05T09:18:37.936Z,3.90
2023-01-05T09:21:08.662Z,4.88
2023-01-05T09:23:38.512Z,3.78
2023-01-05T09:26:08.799Z,5.05
2023-01-05T09:28:37.197Z,4.30
2023-01-05T09:31:12.093Z,3.75
2023-01-05T09:33:40.517Z,4.10
2023-01-05T09:36:09.056Z,5.75
2023-01-05T09:38:39.716Z,4.13
2023-01-05T09:41:40.365Z,4.90
2023-01-05T09:44:31.872Z,4.32
2023-01-05T09:49:50.090Z,4.57
2023-01-05T09:52:19.455Z,3.92
2023-01-05T09:54:49.900Z,5.82
2023-01-05T09:57:28.125Z,7.00
2023-01-05T10:00:04.041Z,6.05
2023-01-05T10:02:47.442Z,6.30
2023-01-05T10:05:15.221Z,5.80
2023-01-05T10:08:03.482Z,7.38
2023-01-05T10:10:42.667Z,5.63
2023-01-05T10:13:26.291Z,5.20
2023-01-05T10:15:55.133Z,5.53
2023-01-05T10:18:30.470Z,6.28
2023-01-05T10:21:06.380Z,6.75
2023-01-05T10:23:56.123Z,5.80
2023-01-05T10:26:51.066Z,5.88
2023-01-05T10:29:23.862Z,5.47
2023-01-05T10:32:09.082Z,6.28
2023-01-05T10:34:59.330Z,6.28
2023-01-05T10:37:32.858Z,5.90
2023-01-05T10:40:09.354Z,6.18
2023-01-05T10:42:46.233Z,7.10
2023-01-05T10:45:15.476Z,6.00
2023-01-05T10:47:42.984Z,7.53
2023-01-05T10:50:45.912Z,6.57
2023-01-05T10:53:15.792Z,6.43
2023-01-05T10:56:11.303Z,7.00
2023-01-05T10:58:40.827Z,7.72
2023-01-05T11:01:29.892Z,7.10
2023-01-05T11:04:33.369Z,7.30
2023-01-05T11:07:06.623Z,8.20
2023-01-05T11:09:34.062Z,7.07
2023-01-05T11:12:02.531Z,7.80
2023-01-05T11:14:33.360Z,7.85
2023-01-05T11:17:02.875Z,9.18
2023-01-05T11:19:37.958Z,8.82
2023-01-05T11:22:05.734Z,8.75
2023-01-05T11:24:34.581Z,7.60
2023-01-05T11:27:20.774Z,8.35
2023-01-05T11:30:16.841Z,8.43
2023-01-05T11:32:44.441Z,7.85
2023-01-05T11:35:44.295Z,8.55
2023-01-05T11:38:32.028Z,9.55
2023-01-05T11:40:59.869Z,11.23
2023-01-05T11:43:29.102Z,8.90
2023-01-05T11:46:01.810Z,7.40
2023-01-05T11:48:32.237Z,8.23
2023-01-05T11:50:59.961Z,7.78
2023-01-05T11:53:33.228Z,9.50
2023-01-05T11:56:05.269Z,9.05
2023-01-05T11:59:00.146Z,9.18
2023-01-05T12:02:05.154Z,9.18
2023-01-05T12:04:44.867Z,9.82
2023-01-05T12:07:23.957Z,10.98
2023-01-05T12:10:22.764Z,10.25
2023-01-05T12:12:59.748Z,9.35
2023-01-05T12:15:49.466Z,8.52
2023-01-05T12:18:35.115Z,10.13
2023-01-05T12:21:24.154Z,10.43
2023-01-05T12:24:36.611Z,10.00
2023-01-05T12:27:06.763Z,10.85
2023-01-05T12:35:55.379Z,8.35
2023-01-05T12:38:48.621Z,9.63
2023-01-05T12:41:22.163Z,10.10
2023-01-05T12:44:17.486Z,8.68
2023-01-05T12:46:48.834Z,9.02
2023-01-05T12:49:18.407Z,9.88
2023-01-05T12:52:08.110Z,9.95
2023-01-05T12:54:46.319Z,9.65
2023-01-05T12:57:16.758Z,10.35
2023-01-05T13:00:07.823Z,9.30
2023-01-05T13:02:39.455Z,9.93
2023-01-05T13:05:16.189Z,10.57
2023-01-05T13:08:01.250Z,9.75
2023-01-05T13:10:44.105Z,10.65
2023-01-05T13:13:13.832Z,10.48
2023-01-05T13:15:46.051Z,9.23
2023-01-05T13:18:17.808Z,11.05
2023-01-05T13:20:56.300Z,12.27
2023-01-05T13:24:01.426Z,10.90
2023-01-05T13:26:37.475Z,12.15
2023-01-05T13:29:05.662Z,10.45
2023-01-05T13:32:01.552Z,9.73
2023-01-05T13:34:51.754Z,10.15
2023-01-05T13:40:22.305Z,9.60
2023-01-05T13:43:18.903Z,9.80
2023-01-05T13:46:02.155Z,10.15
2023-01-05T13:48:44.896Z,10.90
2023-01-05T13:51:40.691Z,8.35
2023-01-05T13:54:13.826Z,8.50
2023-01-05T13:56:41.509Z,7.32
2023-01-05T13:59:35.870Z,6.75
2023-01-05T14:02:34.469Z,6.65
2023-01-05T14:05:01.869Z,6.85
2023-01-05T14:07:29.464Z,8.48
2023-01-05T14:09:57.430Z,8.02
2023-01-05T14:12:42.900Z,7.82
2023-01-05T14:15:12.379Z,7.82
2023-01-05T14:20:35.265Z,9.65
2023-01-05T14:23:22.691Z,6.55
2023-01-05T14:25:53.653Z,6.32
2023-01-05T14:28:24.069Z,6.82
2023-01-05T14:30:51.913Z,7.15
2023-01-05T14:33:19.824Z,8.23
2023-01-05T14:35:47.451Z,12.68
2023-01-05T14:38:14.834Z,12.85
2023-01-05T14:40:48.981Z,9.48
2023-01-05T14:43:29.689Z,8.88
2023-01-05T14:46:09.724Z,8.73
2023-01-05T14:48:46.133Z,8.70
2023-01-05T14:51:13.469Z,8.40
2023-01-05T14:53:43.418Z,7.57
2023-01-05T14:56:19.697Z,7.23
2023-01-05T14:59:09.225Z,6.88
2023-01-05T15:01:50.619Z,7.20
2023-01-05T15:04:31.685Z,7.05
2023-01-05T15:07:33.623Z,7.70
2023-01-05T15:12:55.683Z,6.93
2023-01-05T15:15:26.394Z,7.82
2023-01-05T15:18:24.488Z,8.02
2023-01-05T15:21:01.346Z,8.90
2023-01-05T15:23:44.166Z,7.60
2023-01-05T15:26:36.341Z,8.82
2023-01-05T15:29:32.575Z,7.78
2023-01-05T15:32:18.816Z,8.07
2023-01-05T15:35:05.841Z,8.52
2023-01-05T15:37:34.991Z,8.73
2023-01-05T15:40:04.437Z,8.45
2023-01-05T15:42:36.434Z,7.93
2023-01-05T15:45:04.122Z,8.15
2023-01-05T15:47:31.695Z,8.18
2023-01-05T15:50:00.257Z,8.82
2023-01-05T15:52:35.116Z,8.20
2023-01-05T15:55:13.941Z,8.32
2023-01-05T15:57:42.158Z,8.10
2023-01-05T16:00:16.938Z,8.73
2023-01-05T16:02:45.174Z,8.68
2023-01-05T16:05:12.839Z,8.55
2023-01-05T16:07:57.870Z,9.00
2023-01-05T16:10:39.485Z,9.80
2023-01-05T16:13:12.768Z,11.60
2023-01-05T16:15:42.204Z,12.60
2023-01-05T16:18:14.590Z,7.28
2023-01-05T16:20:46.648Z,9.52
2023-01-05T16:23:36.699Z,9.90
2023-01-05T16:26:04.451Z,10.73
2023-01-05T16:28:32.098Z,9.57
2023-01-05T16:30:59.832Z,8.52
2023-01-05T16:33:38.624Z,9.18
2023-01-05T16:36:09.312Z,9.20
2023-01-05T16:38:36.892Z,9.10
2023-01-05T16:41:08.340Z,10.23
2023-01-05T16:43:39.982Z,10.77
2023-01-05T16:48:59.247Z,10.13
2023-01-05T16:51:32.759Z,10.10
2023-01-05T16:54:22.161Z,9.93
2023-01-05T16:56:58.081Z,10.57
2023-01-05T16:59:42.710Z,10.25
2023-01-05T17:02:35.802Z,9.77
2023-01-05T17:05:03.294Z,11.88
2023-01-05T17:07:37.959Z,11.68
2023-01-05T17:10:19.820Z,10.93
2023-01-05T17:13:01.097Z,12.05
2023-01-05T17:15:32.357Z,11.30
2023-01-05T17:17:59.964Z,12.13
2023-01-05T17:20:34.223Z,11.57
2023-01-05T17:23:02.036Z,11.52
2023-01-05T17:25:32.279Z,12.23
2023-01-05T17:28:00.261Z,12.52
2023-01-05T17:30:27.952Z,11.10
2023-01-05T17:32:55.479Z,12.20
2023-01-05T17:35:24.311Z,11.95
2023-01-05T17:37:51.923Z,12.25
2023-01-05T17:40:21.210Z,13.43
2023-01-05T17:42:49.290Z,13.13
2023-01-05T17:45:19.431Z,12.40
2023-01-05T17:47:47.703Z,13.07
2023-01-05T17:50:16.943Z,11.93
2023-01-05T17:52:44.636Z,14.15
2023-01-05T17:55:12.381Z,12.65
2023-01-05T17:57:40.124Z,14.05
2023-01-05T18:00:09.183Z,12.70
2023-01-05T18:02:37.712Z,13.63
2023-01-05T18:05:06.149Z,12.85
2023-01-05T18:07:34.556Z,13.00
2023-01-05T18:10:02.014Z,12.98
2023-01-05T18:12:29.630Z,12.90
2023-01-05T18:14:57.137Z,14.15
2023-01-05T18:17:25.079Z,13.45
2023-01-05T18:19:52.968Z,13.48
2023-01-05T18:22:20.338Z,14.60
2023-01-05T18:24:50.225Z,14.23
2023-01-05T18:27:17.913Z,14.57
2023-01-05T18:29:46.138Z,14.38
2023-01-05T18:32:13.606Z,14.98
2023-01-05T18:34:41.041Z,13.77
2023-01-05T18:37:15.696Z,13.15
2023-01-05T18:39:48.633Z,14.00
2023-01-05T18:42:16.201Z,15.23
2023-01-05T18:44:43.724Z,14.23
2023-01-05T18:47:12.213Z,13.68
2023-01-05T18:49:39.627Z,14.10
2023-01-05T18:52:07.526Z,14.02
2023-01-05T18:54:35.121Z,14.90
2023-01-05T18:57:02.533Z,16.23
2023-01-05T18:59:30.497Z,16.02
2023-01-05T19:01:59.066Z,15.60
2023-01-05T19:04:26.638Z,16.40
2023-01-05T19:06:54.242Z,15.15
2023-01-05T19:09:23.866Z,15.73
2023-01-05T19:11:51.702Z,14.50
2023-01-05T19:14:19.671Z,15.52
2023-01-05T19:16:49.013Z,15.82
2023-01-05T19:19:17.081Z,14.75
2023-01-05T19:21:45.295Z,14.52
2023-01-05T19:24:17.752Z,16.80
2023-01-05T19:26:45.845Z,14.80
2023-01-05T19:29:13.755Z,14.63
2023-01-05T19:31:41.983Z,13.75
2023-01-05T19:34:10.160Z,13.95
2023-01-05T19:36:37.660Z,14.75
2023-01-05T19:39:13.610Z,14.18
2023-01-05T19:41:46.304Z,14.45
2023-01-05T19:44:16.221Z,14.20
2023-01-05T19:46:44.030Z,15.50
2023-01-05T19:49:19.822Z,15.80
2023-01-05T19:51:47.395Z,13.98
2023-01-05T19:54:15.059Z,14.85
2023-01-05T19:56:42.865Z,13.95
2023-01-05T19:59:17.185Z,13.80
2023-01-05T20:01:44.913Z,12.73
2023-01-05T20:04:14.163Z,13.00
2023-01-05T20:06:45.522Z,13.07
2023-01-05T20:09:15.290Z,12.27
2023-01-05T20:11:44.286Z,13.13
2023-01-05T20:14:21.059Z,13.00
2023-01-05T20:16:51.598Z,14.25
2023-01-05T20:19:20.993Z,13.70
2023-01-05T20:21:50.304Z,13.30
2023-01-05T20:24:19.983Z,12.75
2023-01-05T20:26:47.646Z,13.85
2023-01-05T20:29:16.127Z,13.50
2023-01-05T20:31:52.508Z,12.88
2023-01-05T20:34:21.617Z,12.38
2023-01-05T20:36:49.928Z,14.10
2023-01-05T20:39:19.295Z,12.10
2023-01-05T20:41:48.863Z,12.85
2023-01-05T20:44:18.979Z,13.68
2023-01-05T20:46:48.539Z,12.27
2023-01-05T20:49:16.333Z,12.73
2023-01-05T20:51:46.189Z,13.75
2023-01-05T20:54:16.212Z,11.95
2023-01-05T20:56:45.356Z,13.68
2023-01-05T20:59:33.765Z,12.65
2023-01-05T21:02:01.727Z,14.00
2023-01-05T21:04:32.478Z,12.75
2023-01-05T21:07:02.732Z,13.93
2023-01-05T21:09:31.200Z,15.10
2023-01-05T21:11:58.773Z,13.45
2023-01-05T21:14:26.301Z,12.88
2023-01-05T21:16:54.395Z,13.20
2023-01-05T21:19:23.269Z,11.43
2023-01-05T21:21:53.987Z,11.10
2023-01-05T21:24:21.658Z,11.77
2023-01-05T21:26:49.402Z,12.20
2023-01-05T21:29:26.469Z,11.30
2023-01-05T21:31:55.292Z,12.50
2023-01-05T21:34:23.147Z,14.02
2023-01-05T21:36:50.897Z,12.60
2023-01-05T21:39:23.421Z,12.73
2023-01-05T21:42:10.005Z,12.07
2023-01-05T21:44:37.815Z,11.30
2023-01-05T21:47:06.630Z,11.90
2023-01-05T21:49:35.221Z,11.25
2023-01-05T21:52:21.204Z,11.18
2023-01-05T21:55:07.332Z,10.88
2023-01-05T21:57:34.900Z,10.05
2023-01-05T22:00:03.021Z,13.48
2023-01-05T22:02:30.819Z,11.38
2023-01-05T22:04:58.642Z,11.63
2023-01-05T22:07:26.083Z,10.07
2023-01-05T22:09:57.242Z,10.52
2023-01-05T22:12:25.644Z,10.05
2023-01-05T22:14:53.177Z,10.63
2023-01-05T22:17:20.570Z,10.02
2023-01-05T22:19:48.322Z,8.65
2023-01-05T22:22:15.869Z,8.77
2023-01-05T22:24:43.417Z,9.55
2023-01-05T22:27:15.180Z,8.32
2023-01-05T22:29:42.628Z,8.52
2023-01-05T22:32:10.652Z,8.88
2023-01-05T22:34:43.697Z,8.10
2023-01-05T22:37:12.056Z,8.27
2023-01-05T22:39:41.432Z,7.90
2023-01-05T22:42:09.948Z,8.88
2023-01-05T22:44:38.031Z,7.50
2023-01-05T22:47:05.775Z,8.23
2023-01-05T22:49:33.631Z,8.65
2023-01-05T22:52:01.363Z,7.72
2023-01-05T22:54:29.657Z,7.38
2023-01-05T22:56:57.575Z,8.05
2023-01-05T22:59:25.753Z,8.75
2023-01-05T23:01:57.270Z,8.40
2023-01-05T23:04:24.764Z,7.73
2023-01-05T23:06:52.186Z,7.35
2023-01-05T23:09:19.870Z,7.68
2023-01-05T23:11:48.706Z,7.40
2023-01-05T23:14:19.072Z,7.05
2023-01-05T23:16:47.369Z,7.30
2023-01-05T23:19:16.861Z,7.55
2023-01-05T23:21:46.003Z,7.97
2023-01-05T23:24:15.261Z,7.60
2023-01-05T23:30:37.675Z,7.90
2023-01-05T23:33:05.254Z,7.13
2023-01-05T23:35:36.170Z,7.70
2023-01-05T23:38:03.809Z,6.75
2023-01-05T23:40:31.731Z,6.95
2023-01-05T23:42:59.268Z,7.65
2023-01-05T23:45:26.903Z,7.85
2023-01-05T23:47:54.338Z,7.20
2023-01-05T23:50:23.728Z,8.02
2023-01-05T23:52:51.206Z,7.13
2023-01-05T23:55:18.635Z,6.82
2023-01-05T23:57:46.082Z,6.85
